Southern Ontario METAR Reports

CYSN - St.Catharines
Updated: 04/09/2020 9:00pm
NOT Current
Overcast
Overcast
 Wind from WNW
Wind: WNW 30 km/h, Gust: 41 km/h
Temperature: 5°C
Wind Chill: 0°C
Dew Point: 0°C
Humidity: 70%
Barometer: 997 hPa
Clouds: Overcast
Visibility: 24 km
Cloud details: Few Clouds 610 m
Overcast 3048 m
2020/04/10 01:00 CYSN 100100Z 29016G22KT 15SM FEW020 OVC100 05/M00 A2944 RMK SC2AC6 LAST STFD OBS/NEXT 10 1100UTC SLP972
CYHM - Hamilton
Updated: 04/09/2020 10:43pm
Partly cloudy
Partly cloudy
 Wind from W
Wind: W 24 km/h, Gust: 33 km/h
Temperature: 1°C
Wind Chill: -4°C
Dew Point: -2°C
Humidity: 81%
Barometer: 998 hPa
Clouds: Partly cloudy
Visibility: 24 km
Cloud details: Few Clouds 762 m
Partly cloudy 3658 m
2020/04/10 02:43 CYHM 100243Z 28013G18KT 15SM FEW025 SCT120 01/M02 A2947 RMK SC2AC2 SLP988
 
CYYZ - Toronto
Updated: 04/09/2020 10:24pm
Few Clouds
Few Clouds
 Wind from WNW
Wind: WNW 33 km/h
Temperature: 3°C
Wind Chill: -3°C
Dew Point: -4°C
Humidity: 60%
Barometer: 996.3 hPa
Clouds: Few Clouds
Visibility: 24 km
Cloud details: Few Clouds 1067 m
Few Clouds 4267 m
2020/04/10 02:24 CYYZ 100224Z 29018KT 15SM FEW035 FEW140 03/M04 A2942 RMK CF1AC1 SLP968
CYKF - Waterloo
Updated: 04/09/2020 10:34pm
Partly cloudy
Partly cloudy
 Wind from WNW
Wind: WNW 31 km/h, Gust: 52 km/h
Temperature: 1°C
Wind Chill: -5°C
Dew Point: -2°C
Humidity: 81%
Barometer: 997.6 hPa
Clouds: Partly cloudy
Visibility: 14 km
Cloud details: Few Clouds 640 m
Partly cloudy 914 m
Partly cloudy 1219 m
2020/04/10 02:34 CYKF 100234Z AUTO 29017G28KT 9SM FEW021 SCT030 SCT040 01/M02 A2946 RMK SLP985
 
CYXU - London
Updated: 04/09/2020 10:52pm
Light snow, Showers, Small hail, Overcast
Light snow, Showers, Small hail, Overcast
 Wind from WNW
Wind: WNW 30 km/h, Gust: 50 km/h
Temperature: 0°C
Wind Chill: -6°C
Dew Point: -1°C
Humidity: 93%
Barometer: 1000.3 hPa
Summary: Light snow, Showers, Small hail
Clouds: Overcast
Visibility: 1.2 km
Cloud details: Overcast 91 m
2020/04/10 02:52 CYXU 100252Z 30016G27KT 3/4SM R15/3000FT/N -SHSNGS VV003 00/M01 A2954 RMK SN8 CVCTV CLD EMBD SLP011
CYQG - Windsor
Updated: 04/09/2020 10:00pm
Clear
Clear
 Wind from WNW
Wind: WNW 24 km/h, Gust: 37 km/h
Temperature: 2°C
Wind Chill: -3°C
Dew Point: -2°C
Humidity: 75%
Barometer: 1004.7 hPa
Clouds: Clear
Visibility: 14 km
2020/04/10 02:00 CYQG 100200Z AUTO 29013G20KT 9SM CLR 02/M02 A2967 RMK SLP053
 
CYZR - Sarnia
Updated: 04/09/2020 10:22pm
Mostly cloudy
Mostly cloudy
 Wind from WNW
Wind: WNW 30 km/h, Gust: 39 km/h
Temperature: 2°C
Wind Chill: -3°C
Dew Point: -2°C
Humidity: 75%
Barometer: 1002.4 hPa
Clouds: Mostly cloudy
Visibility: 14 km
Cloud details: Few Clouds 792 m
Partly cloudy 2438 m
Mostly cloudy 2926 m
2020/04/10 02:22 CYZR 100222Z AUTO 29016G21KT 9SM FEW026 SCT080 BKN096 02/M02 A2960 RMK SLP030
CYVV - Wiarton
Updated: 04/09/2020 10:38pm
Light snow, Showers, Overcast
Light snow, Showers, Overcast
 Wind from NW
Wind: NW 22 km/h, Gust: 37 km/h
Temperature: 1°C
Wind Chill: -4°C
Dew Point: 0°C
Humidity: 93%
Barometer: 997 hPa
Summary: Light snow, Showers
Clouds: Overcast
Visibility: 8 km
Cloud details: Few Clouds 366 m
Overcast 610 m
2020/04/10 02:38 CYVV 100238Z 31012G20KT 5SM -SHSN FEW012 OVC020 01/M00 A2944 RMK SF2SC6 SLP979
 
CYPQ - Peterborough
Updated: 04/09/2020 10:59pm
Light rain, Overcast
Light rain, Overcast
 Wind from W
Wind: W 22 km/h, Gust: 37 km/h
Temperature: 3°C
Wind Chill: -2°C
Dew Point: -1°C
Humidity: 75%
Barometer: 992.9 hPa
Summary: Light rain
Clouds: Overcast
Visibility: 14 km
Cloud details: Mostly cloudy 823 m
Mostly cloudy 1067 m
Overcast 1829 m
2020/04/10 02:59 CYPQ 100259Z AUTO 28012G20KT 9SM -RA BKN027 BKN035 OVC060 03/M01 A2932 RMK SLP937
CYTR - Trenton
Updated: 04/09/2020 10:00pm
Mostly cloudy
Mostly cloudy
 Wind from W
Wind: W 26 km/h
Temperature: 4°C
Wind Chill: -1°C
Dew Point: -3°C
Humidity: 61%
Barometer: 993.6 hPa
Clouds: Mostly cloudy
Visibility: 24 km
Cloud details: Mostly cloudy 1402 m
2020/04/10 02:00 CYTR 100200Z 27014KT 15SM BKN046 04/M03 A2934 RMK SC7 SLP939